createdAt,value
2017-10-05T00:00:18.087Z,56.70
2017-10-05T00:02:45.568Z,56.70
2017-10-05T00:05:13.034Z,56.80
2017-10-05T00:07:41.264Z,56.80
2017-10-05T00:10:08.728Z,56.80
2017-10-05T00:12:36.198Z,57.00
2017-10-05T00:15:04.441Z,57.10
2017-10-05T00:17:31.921Z,57.10
2017-10-05T00:19:59.393Z,57.30
2017-10-05T00:22:26.989Z,57.30
2017-10-05T00:24:54.449Z,57.50
2017-10-05T00:27:22.683Z,57.50
2017-10-05T00:29:50.221Z,57.40
2017-10-05T00:32:17.684Z,57.70
2017-10-05T00:34:45.927Z,58.00
2017-10-05T00:37:13.395Z,58.00
2017-10-05T00:39:40.900Z,58.00
2017-10-05T00:42:08.364Z,58.10
2017-10-05T00:44:35.846Z,58.30
2017-10-05T00:47:03.306Z,58.50
2017-10-05T00:49:31.707Z,58.80
2017-10-05T00:52:00.020Z,59.00
2017-10-05T00:54:27.519Z,59.00
2017-10-05T00:56:55.760Z,59.30
2017-10-05T00:59:23.335Z,59.30
2017-10-05T01:01:50.786Z,59.50
2017-10-05T01:04:18.238Z,59.50
2017-10-05T01:06:46.480Z,59.70
2017-10-05T01:09:13.938Z,59.60
2017-10-05T01:11:41.414Z,59.70
2017-10-05T01:14:08.894Z,59.90
2017-10-05T01:16:37.232Z,59.90
2017-10-05T01:19:04.901Z,59.90
2017-10-05T01:21:32.350Z,59.90
2017-10-05T01:24:00.599Z,60.30
2017-10-05T01:26:28.072Z,60.20
2017-10-05T01:28:56.351Z,60.70
2017-10-05T01:31:23.834Z,60.70
2017-10-05T01:33:51.294Z,60.90
2017-10-05T01:36:19.555Z,61.00
2017-10-05T01:38:47.931Z,61.10
2017-10-05T01:41:15.560Z,61.50
2017-10-05T01:43:43.025Z,61.70
2017-10-05T01:46:10.513Z,61.70
2017-10-05T01:48:38.001Z,61.90
2017-10-05T01:51:05.464Z,61.90
2017-10-05T01:53:32.958Z,62.00
2017-10-05T01:56:00.420Z,62.40
2017-10-05T01:58:27.985Z,62.50
2017-10-05T02:00:56.222Z,62.70
2017-10-05T02:03:23.714Z,62.80
2017-10-05T02:05:51.218Z,63.50
2017-10-05T02:08:19.489Z,62.80
2017-10-05T02:10:46.973Z,62.80
2017-10-05T02:13:14.415Z,62.90
2017-10-05T02:15:41.895Z,63.10
2017-10-05T02:18:10.123Z,63.00
2017-10-05T02:20:37.713Z,62.90
2017-10-05T02:23:05.177Z,62.90
2017-10-05T02:25:32.636Z,63.00
2017-10-05T02:28:00.872Z,63.00
2017-10-05T02:30:28.324Z,63.00
2017-10-05T02:32:55.807Z,63.00
2017-10-05T02:35:24.018Z,63.10
2017-10-05T02:37:52.294Z,63.10
2017-10-05T02:40:20.525Z,63.30
2017-10-05T02:42:47.979Z,63.30
2017-10-05T02:45:16.239Z,63.20
2017-10-05T02:47:43.712Z,63.10
2017-10-05T02:50:11.180Z,62.90
2017-10-05T02:52:38.637Z,63.10
2017-10-05T02:55:06.902Z,62.90
2017-10-05T02:57:34.447Z,62.90
2017-10-05T03:00:01.905Z,62.90
2017-10-05T03:02:29.603Z,63.00
2017-10-05T03:04:57.060Z,62.60
2017-10-05T03:07:24.515Z,62.70
2017-10-05T03:09:52.014Z,62.80
2017-10-05T03:12:19.520Z,62.90
2017-10-05T03:14:47.757Z,63.30
2017-10-05T03:17:15.215Z,63.20
2017-10-05T03:19:42.854Z,63.20
2017-10-05T03:22:10.317Z,63.20
2017-10-05T03:24:37.772Z,63.30
2017-10-05T03:27:05.239Z,63.40
2017-10-05T03:29:32.698Z,63.50
2017-10-05T03:32:00.305Z,63.60
2017-10-05T03:34:28.538Z,64.00
2017-10-05T03:36:56.012Z,64.00
2017-10-05T03:39:23.484Z,63.80
2017-10-05T03:41:50.938Z,64.50
2017-10-05T03:44:19.219Z,64.20
2017-10-05T03:46:47.574Z,64.10
2017-10-05T03:49:15.038Z,64.10
2017-10-05T03:51:43.299Z,64.20
2017-10-05T03:54:10.768Z,64.10
2017-10-05T03:56:38.378Z,64.30
2017-10-05T03:59:05.839Z,64.30
2017-10-05T04:01:33.309Z,64.20
2017-10-05T04:04:00.786Z,64.00
2017-10-05T04:06:28.256Z,63.70
2017-10-05T04:08:55.746Z,63.00
2017-10-05T04:11:23.209Z,62.90
2017-10-05T04:13:50.793Z,62.50
2017-10-05T04:16:18.270Z,61.90
2017-10-05T04:18:45.738Z,61.50
2017-10-05T04:21:13.986Z,60.70
2017-10-05T04:23:42.205Z,61.00
2017-10-05T04:26:11.189Z,60.10
2017-10-05T04:28:38.690Z,60.20
2017-10-05T04:31:06.263Z,59.90
2017-10-05T04:33:34.527Z,59.40
2017-10-05T04:36:02.752Z,59.10
2017-10-05T04:38:31.224Z,59.10
2017-10-05T04:40:59.449Z,59.00
2017-10-05T04:43:27.703Z,57.90
2017-10-05T04:45:55.171Z,57.90
2017-10-05T04:48:22.623Z,57.80
2017-10-05T04:50:50.102Z,57.30
2017-10-05T04:53:17.615Z,57.00
2017-10-05T04:55:45.118Z,56.90
2017-10-05T04:58:12.607Z,56.70
2017-10-05T05:00:40.121Z,56.50
2017-10-05T05:03:08.363Z,55.70
2017-10-05T05:05:35.815Z,55.80
2017-10-05T05:08:03.317Z,55.60
2017-10-05T05:10:30.798Z,55.00
2017-10-05T05:12:58.303Z,55.30
2017-10-05T05:15:25.778Z,54.90
2017-10-05T05:17:53.271Z,54.40
2017-10-05T05:20:20.772Z,54.70
2017-10-05T05:22:48.256Z,54.70
2017-10-05T05:25:15.814Z,54.80
2017-10-05T05:27:43.297Z,54.80
2017-10-05T05:30:10.806Z,54.90
2017-10-05T05:32:39.027Z,54.90
2017-10-05T05:35:06.518Z,54.80
2017-10-05T05:37:34.810Z,55.10
2017-10-05T05:40:02.273Z,55.20
2017-10-05T05:42:29.741Z,55.30
2017-10-05T05:44:57.194Z,55.10
2017-10-05T05:47:24.684Z,55.30
2017-10-05T05:49:52.139Z,55.20
2017-10-05T05:52:19.755Z,55.40
2017-10-05T05:54:47.388Z,55.40
2017-10-05T05:57:15.615Z,55.50
2017-10-05T05:59:44.015Z,55.50
2017-10-05T06:02:11.658Z,55.60
2017-10-05T06:04:39.253Z,55.50
2017-10-05T06:07:06.730Z,55.60
2017-10-05T06:09:34.220Z,55.60
2017-10-05T06:12:01.818Z,55.70
2017-10-05T06:14:30.103Z,55.80
2017-10-05T06:16:57.701Z,55.80
2017-10-05T06:19:25.985Z,55.60
2017-10-05T06:21:53.521Z,55.50
2017-10-05T06:24:21.524Z,55.30
2017-10-05T06:26:48.991Z,55.10
2017-10-05T06:29:16.543Z,54.90
2017-10-05T06:31:44.013Z,54.80
2017-10-05T06:34:11.490Z,54.90
2017-10-05T06:36:38.982Z,54.70
2017-10-05T06:39:06.438Z,54.80
2017-10-05T06:41:33.939Z,54.60
2017-10-05T06:44:01.489Z,54.50
2017-10-05T06:46:28.985Z,54.20
2017-10-05T06:48:56.455Z,54.00
2017-10-05T06:51:24.072Z,53.90
2017-10-05T06:53:51.590Z,54.10
2017-10-05T06:56:19.915Z,53.40
2017-10-05T06:58:47.388Z,53.50
2017-10-05T07:01:14.846Z,53.20
2017-10-05T07:03:43.101Z,52.30
2017-10-05T07:06:10.627Z,52.30
2017-10-05T07:08:39.004Z,51.50
2017-10-05T07:11:06.518Z,51.40
2017-10-05T07:13:34.780Z,50.40
2017-10-05T07:16:02.281Z,50.40
2017-10-05T07:18:29.754Z,50.30
2017-10-05T07:20:57.238Z,50.60
2017-10-05T07:23:24.707Z,51.10
2017-10-05T07:25:52.176Z,51.00
2017-10-05T07:28:19.693Z,50.60
2017-10-05T07:30:47.161Z,50.30
2017-10-05T07:33:14.651Z,50.30
2017-10-05T07:35:42.121Z,49.60
2017-10-05T07:38:10.605Z,48.90
2017-10-05T07:40:38.206Z,48.80
2017-10-05T07:43:05.761Z,48.80
2017-10-05T07:45:33.255Z,48.50
2017-10-05T07:48:00.857Z,47.60
2017-10-05T07:50:28.369Z,47.60
2017-10-05T07:52:55.847Z,47.60
2017-10-05T07:55:23.456Z,47.20
2017-10-05T07:57:51.692Z,46.70
2017-10-05T08:00:19.232Z,46.80
2017-10-05T08:02:47.566Z,46.60
2017-10-05T08:05:15.045Z,46.50
2017-10-05T08:07:42.544Z,45.90
2017-10-05T08:10:10.004Z,45.70
2017-10-05T08:12:37.488Z,45.80
2017-10-05T08:15:05.005Z,45.40
2017-10-05T08:17:32.490Z,44.80
2017-10-05T08:20:00.075Z,43.60
2017-10-05T08:22:27.527Z,42.70
2017-10-05T08:24:54.977Z,42.40
2017-10-05T08:27:22.441Z,41.90
2017-10-05T08:29:49.909Z,41.20
2017-10-05T08:32:17.423Z,41.70
2017-10-05T08:34:45.664Z,40.30
2017-10-05T08:37:13.162Z,40.30
2017-10-05T08:39:40.869Z,39.90
2017-10-05T08:42:11.259Z,40.20
2017-10-05T08:44:39.499Z,39.40
2017-10-05T08:47:06.978Z,39.40
2017-10-05T08:49:34.474Z,38.60
2017-10-05T08:52:01.957Z,38.80
2017-10-05T08:54:29.427Z,38.30
2017-10-05T08:56:56.901Z,37.90
2017-10-05T08:59:25.273Z,37.80
2017-10-05T09:01:52.739Z,37.80
2017-10-05T09:04:20.202Z,37.30
2017-10-05T09:06:48.443Z,37.00
2017-10-05T09:09:15.903Z,36.90
2017-10-05T09:11:43.438Z,36.60
2017-10-05T09:14:10.888Z,35.60
2017-10-05T09:16:38.370Z,34.90
2017-10-05T09:19:05.858Z,34.50
2017-10-05T09:21:34.092Z,33.20
2017-10-05T09:24:01.686Z,33.10
2017-10-05T09:26:29.162Z,33.30
2017-10-05T09:28:57.409Z,32.10
2017-10-05T09:31:24.890Z,32.10
2017-10-05T09:33:53.118Z,31.10
2017-10-05T09:36:20.616Z,31.10
2017-10-05T09:38:48.881Z,29.70
2017-10-05T09:41:17.117Z,29.60
2017-10-05T09:43:44.578Z,29.60
2017-10-05T09:46:12.035Z,29.30
2017-10-05T09:48:39.520Z,29.20
2017-10-05T09:51:06.984Z,29.20
2017-10-05T09:53:35.237Z,29.40
2017-10-05T09:56:02.758Z,29.40
2017-10-05T09:58:30.243Z,29.00
2017-10-05T10:00:57.698Z,28.70
2017-10-05T10:03:25.947Z,28.50
2017-10-05T10:05:53.417Z,28.50
2017-10-05T10:08:21.647Z,27.50
2017-10-05T10:10:49.897Z,27.30
2017-10-05T10:13:17.376Z,27.30
2017-10-05T10:15:45.609Z,27.70
2017-10-05T10:18:13.073Z,27.70
2017-10-05T10:20:40.699Z,26.90
2017-10-05T10:23:08.944Z,24.90
2017-10-05T10:25:36.431Z,25.30
2017-10-05T10:28:03.923Z,24.90
2017-10-05T10:30:31.384Z,25.20
2017-10-05T10:32:58.839Z,24.60
2017-10-05T10:35:26.356Z,24.30
2017-10-05T10:37:56.328Z,24.70
2017-10-05T10:40:24.569Z,22.40
2017-10-05T10:42:52.052Z,22.40
2017-10-05T10:45:20.295Z,20.80
2017-10-05T10:47:47.786Z,20.80
2017-10-05T10:50:16.015Z,19.70
2017-10-05T10:52:43.497Z,19.70
2017-10-05T10:55:10.980Z,19.30
2017-10-05T10:57:39.216Z,19.10
2017-10-05T11:00:06.707Z,19.10
2017-10-05T11:02:34.958Z,19.30
2017-10-05T11:05:02.425Z,19.20
2017-10-05T11:07:29.918Z,19.40
2017-10-05T11:09:57.395Z,19.50
2017-10-05T11:12:24.872Z,19.70
2017-10-05T11:14:52.332Z,20.00
2017-10-05T11:17:19.906Z,20.60
2017-10-05T11:19:47.377Z,21.00
2017-10-05T11:22:15.604Z,21.80
2017-10-05T11:24:43.088Z,21.80
2017-10-05T11:27:10.545Z,21.70
2017-10-05T11:29:38.014Z,21.70
2017-10-05T11:32:06.250Z,20.90
2017-10-05T11:34:33.710Z,20.90
2017-10-05T11:37:01.979Z,20.80
2017-10-05T11:39:29.425Z,20.80
2017-10-05T11:41:56.892Z,20.70
2017-10-05T11:44:24.357Z,21.10
2017-10-05T11:46:51.859Z,21.70
2017-10-05T11:49:19.339Z,21.80
2017-10-05T11:51:46.815Z,21.80
2017-10-05T11:54:15.043Z,21.10
2017-10-05T11:56:43.300Z,21.50
2017-10-05T11:59:11.530Z,22.00
2017-10-05T12:01:39.121Z,21.90
2017-10-05T12:04:06.582Z,22.30
2017-10-05T12:06:34.082Z,22.30
2017-10-05T12:09:01.567Z,22.00
2017-10-05T12:11:29.034Z,21.20
2017-10-05T12:13:57.537Z,21.00
2017-10-05T12:16:25.894Z,20.70
2017-10-05T12:18:53.384Z,20.60
2017-10-05T12:21:21.746Z,21.50
2017-10-05T12:23:49.213Z,21.50
2017-10-05T12:26:17.450Z,21.70
2017-10-05T12:28:44.926Z,21.70
2017-10-05T12:31:12.498Z,21.60
2017-10-05T12:33:40.909Z,21.30
2017-10-05T12:36:08.370Z,21.30
2017-10-05T12:38:35.852Z,21.00
2017-10-05T12:41:03.305Z,21.40
2017-10-05T12:43:30.784Z,20.80
2017-10-05T12:45:58.241Z,20.50
2017-10-05T12:48:25.730Z,20.30
2017-10-05T12:50:53.191Z,20.90
2017-10-05T12:53:20.759Z,21.50
2017-10-05T12:55:48.226Z,20.60
2017-10-05T12:58:15.715Z,20.50
2017-10-05T13:00:43.196Z,20.90
2017-10-05T13:03:11.475Z,21.40
2017-10-05T13:05:39.705Z,21.10
2017-10-05T13:08:07.182Z,21.10
2017-10-05T13:10:34.669Z,20.70
2017-10-05T13:13:02.876Z,21.30
2017-10-05T13:15:30.359Z,21.30
2017-10-05T13:17:57.830Z,21.50
2017-10-05T13:20:25.291Z,21.80
2017-10-05T13:22:52.771Z,22.20
2017-10-05T13:25:20.553Z,22.20
2017-10-05T13:27:48.023Z,23.00
2017-10-05T13:30:15.501Z,23.00
2017-10-05T13:32:42.963Z,22.80
2017-10-05T13:35:10.531Z,22.60
2017-10-05T13:37:37.989Z,23.20
2017-10-05T13:40:05.482Z,22.90
2017-10-05T13:42:32.929Z,23.30
2017-10-05T13:45:00.465Z,23.60
2017-10-05T13:47:28.690Z,23.70
2017-10-05T13:49:56.204Z,23.60
2017-10-05T13:52:24.450Z,23.80
2017-10-05T13:54:53.410Z,24.20
2017-10-05T13:57:20.939Z,24.10
2017-10-05T13:59:48.389Z,24.30
2017-10-05T14:02:16.637Z,24.40
2017-10-05T14:04:44.123Z,24.40
2017-10-05T14:07:11.595Z,24.60
2017-10-05T14:09:39.080Z,24.70
2017-10-05T14:12:06.546Z,24.80
2017-10-05T14:14:34.033Z,25.00
2017-10-05T14:17:02.296Z,25.80
2017-10-05T14:19:29.749Z,25.70
2017-10-05T14:21:57.232Z,25.40
2017-10-05T14:24:25.475Z,25.50
2017-10-05T14:26:52.949Z,25.50
2017-10-05T14:29:21.318Z,25.70
2017-10-05T14:31:49.553Z,26.00
2017-10-05T14:34:17.124Z,26.00
2017-10-05T14:36:44.590Z,26.30
2017-10-05T14:39:12.062Z,26.30
2017-10-05T14:41:39.535Z,26.50
2017-10-05T14:44:07.754Z,26.70
2017-10-05T14:46:35.210Z,26.70
2017-10-05T14:49:02.686Z,27.00
2017-10-05T14:51:30.150Z,27.10
2017-10-05T14:53:57.631Z,27.40
2017-10-05T14:56:25.920Z,27.70
2017-10-05T14:58:53.529Z,27.60
2017-10-05T15:01:21.022Z,27.80
2017-10-05T15:03:49.269Z,27.90
2017-10-05T15:06:16.738Z,27.80
2017-10-05T15:08:44.177Z,27.80
2017-10-05T15:11:11.692Z,27.60
2017-10-05T15:13:39.220Z,27.90
2017-10-05T15:16:07.458Z,28.10
2017-10-05T15:18:35.694Z,28.20
2017-10-05T15:21:03.189Z,27.90
2017-10-05T15:23:31.417Z,28.30
2017-10-05T15:25:58.916Z,28.30
2017-10-05T15:28:26.403Z,28.70
2017-10-05T15:30:53.867Z,28.60
2017-10-05T15:33:22.216Z,28.70
2017-10-05T15:35:49.813Z,28.70
2017-10-05T15:38:18.125Z,30.00
2017-10-05T15:40:45.621Z,30.00
2017-10-05T15:43:13.078Z,29.50
2017-10-05T15:45:40.669Z,29.40
2017-10-05T15:48:08.149Z,30.40
2017-10-05T15:50:35.722Z,30.80
2017-10-05T15:53:03.259Z,30.20
2017-10-05T15:55:30.712Z,30.10
2017-10-05T15:57:59.119Z,31.10
2017-10-05T16:00:26.572Z,35.50
2017-10-05T16:02:54.129Z,35.70
2017-10-05T16:05:21.612Z,34.30
2017-10-05T16:07:49.117Z,34.90
2017-10-05T16:10:16.602Z,34.60
2017-10-05T16:12:44.064Z,36.00
2017-10-05T16:15:11.562Z,36.50
2017-10-05T16:17:39.794Z,40.70
2017-10-05T16:20:07.279Z,40.70
2017-10-05T16:22:35.598Z,42.40
2017-10-05T16:25:03.086Z,42.40
2017-10-05T16:27:30.671Z,43.00
2017-10-05T16:29:58.904Z,41.10
2017-10-05T16:32:26.388Z,41.00
2017-10-05T16:34:53.894Z,40.80
2017-10-05T16:37:21.646Z,39.80
2017-10-05T16:39:49.094Z,38.70
2017-10-05T16:42:17.314Z,38.80
2017-10-05T16:44:44.792Z,38.80
2017-10-05T16:47:12.299Z,38.90
2017-10-05T16:49:39.914Z,39.10
2017-10-05T16:52:07.370Z,38.50
2017-10-05T16:54:34.869Z,38.50
2017-10-05T16:57:02.466Z,38.60
2017-10-05T16:59:29.932Z,38.80
2017-10-05T17:01:57.446Z,37.90
2017-10-05T17:04:24.904Z,37.80
2017-10-05T17:06:52.354Z,37.90
2017-10-05T17:09:19.939Z,38.10
2017-10-05T17:11:47.446Z,37.90
2017-10-05T17:14:15.655Z,38.20
2017-10-05T17:16:43.183Z,38.10
2017-10-05T17:19:11.463Z,38.70
2017-10-05T17:21:39.096Z,38.60
2017-10-05T17:24:06.547Z,38.80
2017-10-05T17:26:34.036Z,38.90
2017-10-05T17:29:01.712Z,38.90
2017-10-05T17:31:29.159Z,39.00
2017-10-05T17:33:56.627Z,39.10
2017-10-05T17:36:24.130Z,39.00
2017-10-05T17:38:51.620Z,39.40
2017-10-05T17:41:19.100Z,39.80
2017-10-05T17:43:46.605Z,39.90
2017-10-05T17:46:14.069Z,40.30
2017-10-05T17:48:42.426Z,41.20
2017-10-05T17:51:09.915Z,41.20
2017-10-05T17:53:38.162Z,42.50
2017-10-05T17:56:05.624Z,42.50
2017-10-05T17:58:33.862Z,50.30
2017-10-05T18:01:01.428Z,50.30
2017-10-05T18:03:28.903Z,52.20
2017-10-05T18:05:56.363Z,54.50
2017-10-05T18:08:23.839Z,57.40
2017-10-05T18:10:52.050Z,62.70
2017-10-05T18:13:19.532Z,62.60
2017-10-05T18:15:46.997Z,64.00
2017-10-05T18:18:14.649Z,66.00
2017-10-05T18:20:42.900Z,68.60
2017-10-05T18:23:10.354Z,68.50
2017-10-05T18:25:37.845Z,69.70
2017-10-05T18:28:05.337Z,71.40
2017-10-05T18:30:33.583Z,70.90
2017-10-05T18:33:01.054Z,70.80
2017-10-05T18:35:29.322Z,71.80
2017-10-05T18:37:56.778Z,71.70
2017-10-05T18:40:24.367Z,72.30
2017-10-05T18:42:51.852Z,72.50
2017-10-05T18:45:19.303Z,72.80
2017-10-05T18:47:46.776Z,73.50
2017-10-05T18:50:14.252Z,73.90
2017-10-05T18:52:41.760Z,74.40
2017-10-05T18:55:09.307Z,74.20
2017-10-05T18:57:36.882Z,73.90
2017-10-05T19:00:05.101Z,74.80
2017-10-05T19:02:32.559Z,74.80
2017-10-05T19:05:00.049Z,74.40
2017-10-05T19:07:27.506Z,75.00
2017-10-05T19:09:55.026Z,75.20
2017-10-05T19:12:22.523Z,75.20
2017-10-05T19:14:50.008Z,75.50
2017-10-05T19:17:17.505Z,76.10
2017-10-05T19:19:44.977Z,73.40
2017-10-05T19:22:13.234Z,70.30
2017-10-05T19:24:40.708Z,70.20
2017-10-05T19:27:08.237Z,71.80
2017-10-05T19:29:35.811Z,73.80
2017-10-05T19:32:04.139Z,75.60
2017-10-05T19:34:31.719Z,75.50
2017-10-05T19:36:59.216Z,74.90
2017-10-05T19:39:27.964Z,75.90
2017-10-05T19:41:55.432Z,75.90
2017-10-05T19:44:22.907Z,74.90
2017-10-05T19:46:51.163Z,74.60
2017-10-05T19:49:18.650Z,74.50
2017-10-05T19:51:46.235Z,74.90
2017-10-05T19:54:13.752Z,74.20
2017-10-05T19:56:42.005Z,74.80
2017-10-05T19:59:09.507Z,74.80
2017-10-05T20:01:37.006Z,74.60
2017-10-05T20:04:04.508Z,74.40
2017-10-05T20:06:32.771Z,75.00
2017-10-05T20:09:00.548Z,75.00
2017-10-05T20:11:28.034Z,75.20
2017-10-05T20:13:58.420Z,75.30
2017-10-05T20:16:30.122Z,75.80
2017-10-05T20:21:57.295Z,75.60
2017-10-05T20:24:41.426Z,75.30
2017-10-05T20:27:14.647Z,75.50
2017-10-05T20:29:52.051Z,75.50
2017-10-05T20:32:23.000Z,75.70
2017-10-05T20:34:50.480Z,75.70
2017-10-05T20:37:17.986Z,75.40
2017-10-05T20:39:45.469Z,74.70
2017-10-05T20:42:12.953Z,75.10
2017-10-05T20:44:40.454Z,75.30
2017-10-05T20:47:07.933Z,74.70
2017-10-05T20:49:35.599Z,74.80
2017-10-05T20:52:03.088Z,74.40
2017-10-05T20:54:30.747Z,74.50
2017-10-05T20:56:58.235Z,73.90
2017-10-05T20:59:25.715Z,73.60
2017-10-05T21:01:53.963Z,74.10
2017-10-05T21:04:21.562Z,74.00
2017-10-05T21:06:49.162Z,73.80
2017-10-05T21:09:17.409Z,73.40
2017-10-05T21:11:44.890Z,73.50
2017-10-05T21:14:12.419Z,73.60
2017-10-05T21:16:39.893Z,73.50
2017-10-05T21:19:07.552Z,73.40
2017-10-05T21:21:35.123Z,74.70
2017-10-05T21:24:02.604Z,74.00
2017-10-05T21:26:30.087Z,74.50
2017-10-05T21:28:57.559Z,75.10
2017-10-05T21:31:25.047Z,75.10
2017-10-05T21:33:52.533Z,74.80
2017-10-05T21:36:20.050Z,74.60
2017-10-05T21:38:47.518Z,74.30
2017-10-05T21:41:14.997Z,74.10
2017-10-05T21:43:42.572Z,73.90
2017-10-05T21:46:10.027Z,73.60
2017-10-05T21:48:37.509Z,73.60
2017-10-05T21:51:04.971Z,73.80
2017-10-05T21:53:33.392Z,72.60
2017-10-05T21:56:00.871Z,72.50
2017-10-05T21:58:29.096Z,73.30
2017-10-05T22:00:57.378Z,73.10
2017-10-05T22:03:24.887Z,73.10
2017-10-05T22:05:52.399Z,73.30
2017-10-05T22:08:19.877Z,73.60
2017-10-05T22:10:47.457Z,73.70
2017-10-05T22:13:15.119Z,73.90
2017-10-05T22:15:42.639Z,74.20
2017-10-05T22:18:10.128Z,73.20
2017-10-05T22:20:37.597Z,72.60
2017-10-05T22:23:05.087Z,72.30
2017-10-05T22:25:33.330Z,73.10
2017-10-05T22:28:00.816Z,73.10
2017-10-05T22:30:28.313Z,73.10
2017-10-05T22:32:56.584Z,72.80
2017-10-05T22:35:24.834Z,72.20
2017-10-05T22:37:52.304Z,72.20
2017-10-05T22:40:19.821Z,71.80
2017-10-05T22:42:47.289Z,71.20
2017-10-05T22:45:14.901Z,71.90
2017-10-05T22:47:42.359Z,72.10
2017-10-05T22:50:09.836Z,72.00
2017-10-05T22:52:37.357Z,71.80
2017-10-05T22:55:05.600Z,71.90
2017-10-05T22:57:33.131Z,71.90
2017-10-05T23:00:00.613Z,71.70
2017-10-05T23:02:29.001Z,71.80
2017-10-05T23:04:56.472Z,71.70
2017-10-05T23:07:23.937Z,72.90
2017-10-05T23:09:51.406Z,71.90
2017-10-05T23:12:19.644Z,72.80
2017-10-05T23:14:47.120Z,72.80
2017-10-05T23:17:14.602Z,72.90
2017-10-05T23:19:42.325Z,72.80
2017-10-05T23:22:10.578Z,72.60
2017-10-05T23:24:38.056Z,72.60
2017-10-05T23:27:05.609Z,72.50
2017-10-05T23:29:33.079Z,72.70
2017-10-05T23:32:01.326Z,72.80
2017-10-05T23:34:28.808Z,72.80
2017-10-05T23:36:56.305Z,72.80
2017-10-05T23:39:24.534Z,71.00
2017-10-05T23:41:52.018Z,71.00
2017-10-05T23:44:19.479Z,71.70
2017-10-05T23:46:47.734Z,72.10
2017-10-05T23:49:15.963Z,72.30
2017-10-05T23:51:43.428Z,72.30
2017-10-05T23:54:10.958Z,71.90
2017-10-05T23:56:38.415Z,71.40
2017-10-05T23:59:05.906Z,71.60
